createdAt,value
2018-07-07T00:00:25.615Z,14.00
2018-07-07T00:02:54.051Z,14.00
2018-07-07T00:05:22.490Z,13.90
2018-07-07T00:07:50.924Z,13.90
2018-07-07T00:10:19.373Z,13.80
2018-07-07T00:12:47.786Z,13.80
2018-07-07T00:15:17.863Z,13.70
2018-07-07T00:17:46.850Z,13.70
2018-07-07T00:20:15.838Z,13.70
2018-07-07T00:22:44.387Z,13.60
2018-07-07T00:25:15.159Z,13.60
2018-07-07T00:27:44.355Z,13.50
2018-07-07T00:30:12.805Z,13.50
2018-07-07T00:32:41.258Z,13.40
2018-07-07T00:35:09.819Z,13.40
2018-07-07T00:37:38.304Z,13.40
2018-07-07T00:40:07.339Z,13.30
2018-07-07T00:42:36.165Z,13.30
2018-07-07T00:45:04.687Z,13.30
2018-07-07T00:47:33.221Z,13.30
2018-07-07T00:50:01.759Z,13.30
2018-07-07T00:52:30.518Z,13.30
2018-07-07T00:54:58.970Z,13.20
2018-07-07T00:57:27.398Z,13.20
2018-07-07T00:59:55.825Z,13.20
2018-07-07T01:02:24.616Z,13.20
2018-07-07T01:04:54.234Z,13.10
2018-07-07T01:07:23.309Z,13.00
2018-07-07T01:09:51.814Z,12.90
2018-07-07T01:12:20.279Z,13.00
2018-07-07T01:14:49.268Z,12.90
2018-07-07T01:19:45.914Z,12.90
2018-07-07T01:22:14.926Z,12.90
2018-07-07T01:24:44.150Z,12.90
2018-07-07T01:27:12.610Z,12.80
2018-07-07T01:29:41.896Z,12.80
2018-07-07T01:32:10.683Z,12.80
2018-07-07T01:37:07.908Z,12.80
2018-07-07T01:39:36.329Z,12.70
2018-07-07T01:42:05.006Z,12.80
2018-07-07T01:44:33.466Z,12.70
2018-07-07T01:47:01.911Z,12.80
2018-07-07T01:49:30.371Z,12.80
2018-07-07T01:51:58.809Z,12.80
2018-07-07T01:54:27.237Z,12.70
2018-07-07T01:56:55.715Z,12.70
2018-07-07T01:59:24.259Z,12.70
2018-07-07T02:04:20.843Z,12.70
2018-07-07T02:06:49.314Z,12.80
2018-07-07T02:09:17.754Z,12.80
2018-07-07T02:11:46.207Z,12.90
2018-07-07T02:14:14.644Z,13.00
2018-07-07T02:16:43.207Z,13.00
2018-07-07T02:19:11.675Z,13.00
2018-07-07T02:21:40.100Z,13.00
2018-07-07T02:24:08.534Z,13.00
2018-07-07T02:26:36.958Z,13.00
2018-07-07T02:29:05.379Z,12.90
2018-07-07T02:31:33.915Z,12.90
2018-07-07T02:34:02.322Z,12.80
2018-07-07T02:36:30.794Z,12.80
2018-07-07T02:38:59.214Z,12.80
2018-07-07T02:41:27.646Z,12.80
2018-07-07T02:43:56.074Z,12.80
2018-07-07T02:48:52.679Z,13.00
2018-07-07T02:51:21.143Z,13.00
2018-07-07T02:53:49.581Z,13.10
2018-07-07T02:56:17.990Z,13.10
2018-07-07T02:58:46.620Z,13.20
2018-07-07T03:01:15.037Z,13.10
2018-07-07T03:03:43.541Z,13.10
2018-07-07T03:06:11.991Z,13.10
2018-07-07T03:08:40.432Z,13.10
2018-07-07T03:11:08.866Z,13.10
2018-07-07T03:13:37.298Z,13.10
2018-07-07T03:16:05.807Z,13.00
2018-07-07T03:18:34.225Z,13.10
2018-07-07T03:21:02.671Z,13.00
2018-07-07T03:23:31.072Z,13.10
2018-07-07T03:25:59.535Z,13.10
2018-07-07T03:28:28.319Z,13.10
2018-07-07T03:30:56.764Z,13.10
2018-07-07T03:33:25.184Z,13.20
2018-07-07T03:35:53.640Z,13.20
2018-07-07T03:38:22.053Z,13.20
2018-07-07T03:40:50.489Z,13.30
2018-07-07T03:43:18.906Z,13.30
2018-07-07T03:45:47.312Z,13.30
2018-07-07T03:48:15.727Z,13.30
2018-07-07T03:50:44.545Z,13.20
2018-07-07T03:53:12.994Z,13.30
2018-07-07T03:55:41.409Z,13.40
2018-07-07T03:58:09.861Z,13.40
2018-07-07T04:00:38.289Z,13.50
2018-07-07T04:03:06.703Z,13.60
2018-07-07T04:05:35.129Z,13.60
2018-07-07T04:08:03.564Z,13.70
2018-07-07T04:10:31.988Z,13.70
2018-07-07T04:13:00.397Z,13.70
2018-07-07T04:15:28.834Z,13.70
2018-07-07T04:17:57.248Z,13.70
2018-07-07T04:20:25.674Z,13.80
2018-07-07T04:22:54.086Z,13.90
2018-07-07T04:25:22.502Z,13.90
2018-07-07T04:27:50.935Z,14.00
2018-07-07T04:30:19.352Z,14.10
2018-07-07T04:32:47.760Z,14.10
2018-07-07T04:35:16.170Z,14.20
2018-07-07T04:37:44.581Z,14.20
2018-07-07T04:40:13.019Z,14.30
2018-07-07T04:42:41.485Z,14.20
2018-07-07T04:45:09.906Z,14.30
2018-07-07T04:47:38.319Z,14.40
2018-07-07T04:50:06.829Z,14.60
2018-07-07T04:52:35.249Z,14.90
2018-07-07T04:55:03.698Z,14.60
2018-07-07T04:57:32.109Z,14.40
2018-07-07T05:00:00.547Z,14.60
2018-07-07T05:02:28.958Z,14.80
2018-07-07T05:04:57.406Z,14.90
2018-07-07T05:07:25.853Z,14.90
2018-07-07T05:09:54.276Z,14.80
2018-07-07T05:12:25.160Z,14.90
2018-07-07T05:14:53.785Z,15.10
2018-07-07T05:17:22.231Z,15.30
2018-07-07T05:19:50.636Z,15.70
2018-07-07T05:22:19.045Z,16.20
2018-07-07T05:24:48.341Z,16.70
2018-07-07T05:27:18.089Z,17.30
2018-07-07T05:29:47.388Z,17.80
2018-07-07T05:32:15.839Z,18.00
2018-07-07T05:34:44.241Z,18.40
2018-07-07T05:37:12.681Z,19.10
2018-07-07T05:39:41.097Z,19.30
2018-07-07T05:42:09.506Z,19.90
2018-07-07T05:44:38.946Z,20.00
2018-07-07T05:47:07.369Z,19.90
2018-07-07T05:49:35.826Z,19.50
2018-07-07T05:52:04.294Z,19.20
2018-07-07T05:54:32.746Z,18.80
2018-07-07T05:57:01.174Z,18.80
2018-07-07T05:59:29.787Z,18.80
2018-07-07T06:01:58.697Z,18.80
2018-07-07T06:04:27.126Z,18.80
2018-07-07T06:06:55.709Z,19.40
2018-07-07T06:09:24.130Z,20.10
2018-07-07T06:11:52.525Z,20.80
2018-07-07T06:14:20.964Z,21.60
2018-07-07T06:16:49.357Z,22.20
2018-07-07T06:19:17.753Z,22.50
2018-07-07T06:21:46.158Z,23.00
2018-07-07T06:24:15.023Z,22.90
2018-07-07T06:26:43.466Z,23.50
2018-07-07T06:29:11.862Z,23.30
2018-07-07T06:31:40.290Z,23.30
2018-07-07T06:34:08.693Z,23.10
2018-07-07T06:36:37.114Z,22.80
2018-07-07T06:39:06.435Z,23.50
2018-07-07T06:41:34.905Z,24.30
2018-07-07T06:44:03.541Z,24.60
2018-07-07T06:46:31.963Z,24.70
2018-07-07T06:49:00.474Z,25.30
2018-07-07T06:51:28.916Z,25.80
2018-07-07T06:53:57.505Z,26.00
2018-07-07T06:56:25.794Z,26.40
2018-07-07T06:58:54.705Z,26.00
2018-07-07T07:01:23.118Z,26.60
2018-07-07T07:03:51.506Z,27.10
2018-07-07T07:06:19.954Z,27.40
2018-07-07T07:08:48.369Z,26.70
2018-07-07T07:11:16.827Z,26.40
2018-07-07T07:13:45.225Z,27.20
2018-07-07T07:16:13.645Z,27.90
2018-07-07T07:18:42.048Z,28.90
2018-07-07T07:21:10.474Z,29.30
2018-07-07T07:23:38.909Z,29.20
2018-07-07T07:26:07.485Z,29.30
2018-07-07T07:28:35.728Z,29.60
2018-07-07T07:31:04.149Z,29.20
2018-07-07T07:33:32.601Z,29.30
2018-07-07T07:36:05.293Z,29.70
2018-07-07T07:38:33.717Z,29.50
2018-07-07T07:41:02.168Z,29.90
2018-07-07T07:43:30.565Z,29.60
2018-07-07T07:45:59.010Z,29.40
2018-07-07T07:48:27.434Z,29.80
2018-07-07T07:50:55.881Z,30.30
2018-07-07T07:53:24.297Z,31.40
2018-07-07T07:55:52.859Z,32.00
2018-07-07T07:58:21.246Z,32.40
2018-07-07T08:00:49.678Z,31.80
2018-07-07T08:03:18.111Z,31.30
2018-07-07T08:05:46.527Z,33.00
2018-07-07T08:08:15.524Z,31.80
2018-07-07T08:10:43.962Z,31.50
2018-07-07T08:13:12.357Z,32.10
2018-07-07T08:15:40.757Z,32.40
2018-07-07T08:18:09.181Z,33.00
2018-07-07T08:20:37.586Z,30.90
2018-07-07T08:23:06.042Z,30.10
2018-07-07T08:25:34.437Z,29.90
2018-07-07T08:28:02.902Z,30.60
2018-07-07T08:30:31.291Z,30.90
2018-07-07T08:33:00.541Z,31.00
2018-07-07T08:35:30.214Z,31.30
2018-07-07T08:37:58.659Z,31.70
2018-07-07T08:40:27.090Z,31.70
2018-07-07T08:42:55.522Z,30.60
2018-07-07T08:47:54.273Z,31.00
2018-07-07T08:50:22.755Z,31.00
2018-07-07T08:52:51.154Z,31.70
2018-07-07T08:55:19.564Z,31.50
2018-07-07T09:00:18.042Z,30.40
2018-07-07T09:02:46.482Z,30.40
2018-07-07T09:05:14.882Z,30.30
2018-07-07T09:07:43.317Z,29.80
2018-07-07T09:10:11.758Z,29.80
2018-07-07T09:12:40.178Z,30.40
2018-07-07T09:15:08.606Z,30.70
2018-07-07T09:17:37.048Z,31.00
2018-07-07T09:20:06.577Z,30.90
2018-07-07T09:22:35.039Z,30.80
2018-07-07T09:25:03.510Z,31.00
2018-07-07T09:27:31.994Z,31.70
2018-07-07T09:30:00.724Z,31.50
2018-07-07T09:32:29.175Z,31.70
2018-07-07T09:34:57.702Z,32.00
2018-07-07T09:37:26.541Z,30.40
2018-07-07T09:39:54.955Z,30.50
2018-07-07T09:44:51.508Z,31.10
2018-07-07T09:47:20.107Z,31.90
2018-07-07T09:49:48.616Z,30.50
2018-07-07T09:52:17.026Z,29.40
2018-07-07T09:54:45.438Z,29.50
2018-07-07T09:57:13.870Z,30.50
2018-07-07T09:59:42.307Z,30.60
2018-07-07T10:02:10.726Z,31.70
2018-07-07T10:04:39.145Z,31.80
2018-07-07T10:07:07.578Z,32.00
2018-07-07T10:09:35.965Z,32.00
2018-07-07T10:12:04.382Z,32.30
2018-07-07T10:14:32.786Z,32.20
2018-07-07T10:17:01.206Z,32.20
2018-07-07T10:19:29.605Z,32.70
2018-07-07T10:21:58.026Z,32.90
2018-07-07T10:24:26.438Z,32.30
2018-07-07T10:26:54.821Z,31.80
2018-07-07T10:29:23.225Z,31.40
2018-07-07T10:31:51.641Z,30.80
2018-07-07T10:34:20.074Z,30.40
2018-07-07T10:36:48.473Z,30.70
2018-07-07T10:41:44.990Z,30.90
2018-07-07T10:44:13.414Z,31.70
2018-07-07T10:46:41.806Z,32.00
2018-07-07T10:49:10.206Z,32.20
2018-07-07T10:51:38.640Z,32.70
2018-07-07T10:54:07.054Z,33.40
2018-07-07T10:56:35.459Z,31.80
2018-07-07T10:59:03.914Z,31.90
2018-07-07T11:01:32.315Z,31.90
2018-07-07T11:04:00.788Z,31.80
2018-07-07T11:06:29.209Z,31.60
2018-07-07T11:08:57.613Z,32.10
2018-07-07T11:11:26.038Z,32.20
2018-07-07T11:13:54.453Z,31.90
2018-07-07T11:18:50.953Z,31.70
2018-07-07T11:21:19.366Z,31.60
2018-07-07T11:23:47.813Z,32.00
2018-07-07T11:26:16.241Z,31.90
2018-07-07T11:28:44.658Z,32.20
2018-07-07T11:31:13.062Z,32.10
2018-07-07T11:33:41.498Z,32.20
2018-07-07T11:36:09.891Z,32.00
2018-07-07T11:38:38.330Z,32.00
2018-07-07T11:41:06.982Z,32.00
2018-07-07T11:43:35.473Z,32.00
2018-07-07T11:46:03.923Z,32.10
2018-07-07T11:48:32.374Z,32.20
2018-07-07T11:51:00.792Z,32.00
2018-07-07T11:53:29.193Z,31.20
2018-07-07T11:55:57.582Z,31.60
2018-07-07T11:58:25.980Z,31.60
2018-07-07T12:00:54.397Z,31.40
2018-07-07T12:03:29.366Z,31.50
2018-07-07T12:05:57.793Z,31.60
2018-07-07T12:08:26.271Z,32.10
2018-07-07T12:10:54.623Z,32.00
2018-07-07T12:13:23.038Z,32.30
2018-07-07T12:15:51.468Z,31.70
2018-07-07T12:18:19.882Z,31.70
2018-07-07T12:20:48.289Z,31.00
2018-07-07T12:23:16.723Z,30.60
2018-07-07T12:25:45.155Z,30.80
2018-07-07T12:28:13.561Z,30.70
2018-07-07T12:30:41.974Z,31.30
2018-07-07T12:33:10.401Z,31.20
2018-07-07T12:35:39.830Z,30.80
2018-07-07T12:38:08.862Z,30.60
2018-07-07T12:40:37.306Z,30.70
2018-07-07T12:43:05.759Z,31.20
2018-07-07T12:45:34.190Z,31.40
2018-07-07T12:48:02.618Z,31.00
2018-07-07T12:50:31.049Z,31.00
2018-07-07T12:52:59.477Z,30.60
2018-07-07T12:55:29.448Z,31.00
2018-07-07T12:57:59.926Z,30.70
2018-07-07T13:00:29.794Z,31.00
2018-07-07T13:02:59.666Z,30.80
2018-07-07T13:05:30.270Z,30.80
2018-07-07T13:08:01.129Z,30.30
2018-07-07T13:10:29.637Z,29.90
2018-07-07T13:12:58.035Z,30.20
2018-07-07T13:15:26.468Z,29.90
2018-07-07T13:17:54.894Z,30.20
2018-07-07T13:20:23.361Z,30.30
2018-07-07T13:22:53.870Z,30.60
2018-07-07T13:25:22.290Z,30.60
2018-07-07T13:27:50.717Z,30.20
2018-07-07T13:30:19.162Z,30.20
2018-07-07T13:32:47.610Z,30.30
2018-07-07T13:35:16.014Z,30.40
2018-07-07T13:37:44.429Z,30.60
2018-07-07T13:40:12.921Z,30.00
2018-07-07T13:42:41.319Z,29.60
2018-07-07T13:45:09.739Z,29.60
2018-07-07T13:47:38.153Z,29.40
2018-07-07T13:50:06.669Z,29.30
2018-07-07T13:52:35.086Z,29.60
2018-07-07T13:55:03.532Z,29.40
2018-07-07T13:57:31.954Z,29.20
2018-07-07T14:00:00.370Z,29.20
2018-07-07T14:02:28.782Z,29.20
2018-07-07T14:04:57.192Z,28.90
2018-07-07T14:07:25.617Z,28.40
2018-07-07T14:09:54.042Z,28.60
2018-07-07T14:12:22.882Z,28.60
2018-07-07T14:14:52.139Z,28.80
2018-07-07T14:17:20.638Z,28.50
2018-07-07T14:19:48.997Z,28.80
2018-07-07T14:22:17.401Z,28.90
2018-07-07T14:24:45.830Z,28.70
2018-07-07T14:29:42.398Z,28.40
2018-07-07T14:32:10.784Z,28.30
2018-07-07T14:34:39.181Z,28.20
2018-07-07T14:37:07.630Z,28.30
2018-07-07T14:39:50.578Z,28.00
2018-07-07T14:42:57.309Z,28.00
2018-07-07T14:45:36.529Z,27.80
2018-07-07T14:48:05.631Z,28.00
2018-07-07T14:53:02.189Z,27.50
2018-07-07T14:55:30.622Z,27.70
2018-07-07T14:57:59.108Z,27.70
2018-07-07T15:00:28.655Z,27.50
2018-07-07T15:02:57.783Z,27.50
2018-07-07T15:05:26.200Z,27.40
2018-07-07T15:07:54.871Z,27.40
2018-07-07T15:10:23.334Z,27.30
2018-07-07T15:12:51.732Z,27.40
2018-07-07T15:15:20.687Z,27.10
2018-07-07T15:17:49.085Z,26.90
2018-07-07T15:20:17.489Z,26.70
2018-07-07T15:22:46.035Z,26.90
2018-07-07T15:25:14.318Z,27.10
2018-07-07T15:27:43.135Z,27.10
2018-07-07T15:30:11.561Z,26.80
2018-07-07T15:32:40.598Z,26.60
2018-07-07T15:35:09.023Z,26.60
2018-07-07T15:37:37.422Z,26.80
2018-07-07T15:40:06.294Z,26.70
2018-07-07T15:45:02.895Z,26.60
2018-07-07T15:47:31.312Z,26.50
2018-07-07T15:49:59.738Z,26.60
2018-07-07T15:52:28.167Z,26.30
2018-07-07T15:57:24.715Z,26.00
2018-07-07T15:59:53.126Z,25.70
2018-07-07T16:02:21.541Z,25.70
2018-07-07T16:04:49.925Z,25.60
2018-07-07T16:07:18.326Z,25.60
2018-07-07T16:09:46.770Z,25.80
2018-07-07T16:12:15.181Z,25.90
2018-07-07T16:14:43.607Z,26.00
2018-07-07T16:17:12.010Z,25.80
2018-07-07T16:19:40.448Z,25.70
2018-07-07T16:22:08.900Z,25.60
2018-07-07T16:24:37.265Z,25.70
2018-07-07T16:27:06.173Z,25.80
2018-07-07T16:29:34.600Z,25.60
2018-07-07T16:32:03.006Z,25.40
2018-07-07T16:34:31.419Z,25.30
2018-07-07T16:36:59.846Z,25.50
2018-07-07T16:39:28.290Z,25.50
2018-07-07T16:41:57.258Z,25.40
2018-07-07T16:44:26.135Z,25.40
2018-07-07T16:46:55.001Z,25.40
2018-07-07T16:49:24.572Z,25.10
2018-07-07T16:51:53.421Z,25.10
2018-07-07T16:54:22.518Z,24.90
2018-07-07T16:56:51.563Z,24.70
2018-07-07T16:59:20.006Z,24.50
2018-07-07T17:04:17.082Z,24.70
2018-07-07T17:06:45.509Z,24.60
2018-07-07T17:09:13.959Z,24.60
2018-07-07T17:11:42.434Z,24.70
2018-07-07T17:14:11.282Z,24.70
2018-07-07T17:16:41.405Z,24.70
2018-07-07T17:19:10.637Z,24.80
2018-07-07T17:21:39.326Z,24.80
2018-07-07T17:24:07.785Z,24.80
2018-07-07T17:26:36.286Z,24.80
2018-07-07T17:29:04.714Z,24.70
2018-07-07T17:31:33.157Z,24.70
2018-07-07T17:34:01.594Z,24.50
2018-07-07T17:36:30.057Z,24.40
2018-07-07T17:38:58.904Z,24.50
2018-07-07T17:41:27.419Z,24.50
2018-07-07T17:43:55.857Z,24.40
2018-07-07T17:46:24.346Z,24.30
2018-07-07T17:48:52.900Z,24.10
2018-07-07T17:51:21.398Z,24.10
2018-07-07T17:53:50.221Z,24.10
2018-07-07T17:56:18.754Z,24.00
2018-07-07T17:58:47.190Z,23.90
2018-07-07T18:01:15.818Z,23.90
2018-07-07T18:03:44.375Z,23.80
2018-07-07T18:06:12.783Z,23.80
2018-07-07T18:08:41.527Z,23.60
2018-07-07T18:11:09.933Z,23.60
2018-07-07T18:13:38.333Z,23.60
2018-07-07T18:16:06.795Z,23.60
2018-07-07T18:18:35.187Z,23.60
2018-07-07T18:21:03.644Z,23.50
2018-07-07T18:23:32.444Z,23.50
2018-07-07T18:26:01.686Z,23.40
2018-07-07T18:28:30.997Z,23.40
2018-07-07T18:31:00.181Z,23.20
2018-07-07T18:33:28.808Z,23.20
2018-07-07T18:35:58.074Z,23.10
2018-07-07T18:38:28.165Z,23.10
2018-07-07T18:40:57.965Z,23.10
2018-07-07T18:43:27.533Z,23.10
2018-07-07T18:45:59.357Z,23.00
2018-07-07T18:48:29.205Z,22.90
2018-07-07T18:50:59.360Z,22.90
2018-07-07T18:53:28.786Z,22.80
2018-07-07T18:55:59.560Z,22.70
2018-07-07T18:58:29.065Z,22.60
2018-07-07T19:00:58.521Z,22.50
2018-07-07T19:03:28.606Z,22.30
2018-07-07T19:05:58.179Z,22.20
2018-07-07T19:08:28.656Z,22.10
2018-07-07T19:10:57.945Z,22.00
2018-07-07T19:13:27.487Z,22.00
2018-07-07T19:15:55.956Z,21.80
2018-07-07T19:18:24.721Z,21.60
2018-07-07T19:20:58.813Z,21.50
2018-07-07T19:23:33.103Z,21.30
2018-07-07T19:28:36.614Z,20.90
2018-07-07T19:31:05.897Z,20.70
2018-07-07T19:33:40.494Z,20.50
2018-07-07T19:36:14.551Z,20.40
2018-07-07T19:38:43.302Z,20.10
2018-07-07T19:41:12.054Z,20.00
2018-07-07T19:43:40.784Z,19.80
2018-07-07T19:46:09.660Z,19.70
2018-07-07T19:48:38.472Z,19.60
2018-07-07T19:51:07.260Z,19.40
2018-07-07T19:53:36.153Z,19.20
2018-07-07T19:56:04.975Z,19.10
2018-07-07T19:58:33.958Z,19.00
2018-07-07T20:01:03.627Z,18.80
2018-07-07T20:03:32.731Z,18.70
2018-07-07T20:06:01.488Z,18.50
2018-07-07T20:08:30.291Z,18.40
2018-07-07T20:10:59.307Z,18.30
2018-07-07T20:13:28.098Z,18.20
2018-07-07T20:16:17.876Z,18.10
2018-07-07T20:19:03.155Z,18.00
2018-07-07T20:21:48.360Z,17.90
2018-07-07T20:24:18.988Z,17.60
2018-07-07T20:26:52.848Z,17.50
2018-07-07T20:29:21.502Z,17.40
2018-07-07T20:31:51.494Z,17.40
2018-07-07T20:34:23.891Z,17.30
2018-07-07T20:36:52.985Z,17.20
2018-07-07T20:39:21.975Z,17.10
2018-07-07T20:41:51.604Z,17.10
2018-07-07T20:44:20.639Z,17.00
2018-07-07T20:46:49.713Z,16.90
2018-07-07T20:49:18.539Z,16.80
2018-07-07T20:51:47.317Z,16.70
2018-07-07T20:54:16.121Z,16.60
2018-07-07T20:56:48.297Z,16.50
2018-07-07T20:59:18.313Z,16.40
2018-07-07T21:01:47.127Z,16.40
2018-07-07T21:04:16.876Z,16.30
2018-07-07T21:06:47.592Z,16.40
2018-07-07T21:09:16.335Z,16.30
2018-07-07T21:11:47.697Z,16.10
2018-07-07T21:14:16.514Z,16.10
2018-07-07T21:16:46.658Z,16.10
2018-07-07T21:19:15.296Z,16.00
2018-07-07T21:21:43.752Z,16.00
2018-07-07T21:24:12.251Z,16.00
2018-07-07T21:26:40.739Z,16.00
2018-07-07T21:29:09.308Z,15.80
2018-07-07T21:31:37.959Z,15.80
2018-07-07T21:34:06.508Z,15.80
2018-07-07T21:36:35.040Z,15.70
2018-07-07T21:39:08.443Z,15.70
2018-07-07T21:41:36.930Z,15.60
2018-07-07T21:44:05.714Z,15.60
2018-07-07T21:46:34.148Z,15.50
2018-07-07T21:49:02.575Z,15.40
2018-07-07T21:51:31.042Z,15.40
2018-07-07T21:53:59.567Z,15.40
2018-07-07T21:56:28.136Z,15.30
2018-07-07T21:59:01.927Z,15.30
2018-07-07T22:02:00.666Z,15.30
2018-07-07T22:04:35.120Z,15.20
2018-07-07T22:07:11.297Z,15.10
2018-07-07T22:09:39.957Z,15.00
2018-07-07T22:12:08.443Z,15.00
2018-07-07T22:14:36.926Z,14.90
2018-07-07T22:17:05.405Z,14.90
2018-07-07T22:19:33.831Z,14.80
2018-07-07T22:22:05.308Z,14.70
2018-07-07T22:24:33.846Z,14.70
2018-07-07T22:27:03.481Z,14.70
2018-07-07T22:29:31.961Z,14.60
2018-07-07T22:32:01.579Z,14.60
2018-07-07T22:34:35.428Z,14.60
2018-07-07T22:37:03.858Z,14.50
2018-07-07T22:39:37.456Z,14.50
2018-07-07T22:42:08.043Z,14.50
2018-07-07T22:44:37.052Z,14.50
2018-07-07T22:47:05.601Z,14.40
2018-07-07T22:49:34.131Z,14.40
2018-07-07T22:52:02.575Z,14.40
2018-07-07T22:54:30.998Z,14.40
2018-07-07T22:56:59.393Z,14.30
2018-07-07T22:59:27.814Z,14.20
2018-07-07T23:01:56.225Z,14.20
2018-07-07T23:04:24.737Z,14.20
2018-07-07T23:06:53.303Z,14.10
2018-07-07T23:09:21.778Z,14.00
2018-07-07T23:11:50.233Z,13.90
2018-07-07T23:14:18.744Z,13.90
2018-07-07T23:16:47.201Z,13.90
2018-07-07T23:19:15.647Z,13.70
2018-07-07T23:21:44.148Z,13.60
2018-07-07T23:24:12.584Z,13.60
2018-07-07T23:26:41.047Z,13.60
2018-07-07T23:29:09.475Z,13.50
2018-07-07T23:31:37.951Z,13.50
2018-07-07T23:34:06.418Z,13.40
2018-07-07T23:36:34.896Z,13.30
2018-07-07T23:39:03.870Z,13.30
2018-07-07T23:41:32.381Z,13.30
2018-07-07T23:44:00.795Z,13.20
2018-07-07T23:46:29.250Z,13.10
2018-07-07T23:48:57.661Z,13.10
2018-07-07T23:51:26.244Z,13.10
2018-07-07T23:53:54.668Z,13.00
2018-07-07T23:56:24.194Z,13.00
2018-07-07T23:58:52.745Z,12.90
